createdAt,value
2018-01-24T00:00:52.091Z,80.13
2018-01-24T00:03:19.614Z,80.12
2018-01-24T00:05:47.130Z,80.19
2018-01-24T00:08:14.759Z,79.86
2018-01-24T00:10:42.246Z,79.50
2018-01-24T00:13:09.810Z,78.98
2018-01-24T00:15:37.323Z,78.58
2018-01-24T00:18:04.930Z,78.34
2018-01-24T00:20:32.625Z,78.17
2018-01-24T00:23:00.199Z,78.21
2018-01-24T00:25:27.651Z,77.86
2018-01-24T00:27:55.150Z,77.75
2018-01-24T00:30:22.795Z,77.83
2018-01-24T00:32:50.292Z,77.89
2018-01-24T00:35:17.758Z,78.11
2018-01-24T00:37:45.226Z,78.15
2018-01-24T00:40:12.704Z,78.30
2018-01-24T00:42:40.227Z,77.91
2018-01-24T00:45:07.714Z,77.88
2018-01-24T00:47:35.176Z,77.96
2018-01-24T00:50:02.679Z,78.15
2018-01-24T00:52:30.192Z,78.36
2018-01-24T00:54:57.671Z,78.23
2018-01-24T00:57:25.158Z,77.67
2018-01-24T00:59:52.642Z,77.95
2018-01-24T01:02:20.110Z,78.08
2018-01-24T01:04:47.620Z,78.24
2018-01-24T01:07:15.094Z,77.97
2018-01-24T01:09:42.733Z,78.17
2018-01-24T01:12:10.218Z,78.11
2018-01-24T01:14:37.832Z,77.74
2018-01-24T01:17:05.320Z,77.49
2018-01-24T01:19:32.783Z,77.24
2018-01-24T01:22:00.239Z,77.18
2018-01-24T01:24:27.842Z,77.15
2018-01-24T01:26:55.296Z,77.19
2018-01-24T01:29:22.738Z,77.62
2018-01-24T01:31:50.246Z,77.57
2018-01-24T01:34:17.738Z,77.72
2018-01-24T01:36:45.389Z,77.84
2018-01-24T01:39:12.858Z,77.58
2018-01-24T01:41:40.331Z,77.15
2018-01-24T01:44:07.903Z,77.37
2018-01-24T01:46:35.392Z,77.38
2018-01-24T01:49:02.863Z,77.32
2018-01-24T01:51:30.410Z,77.28
2018-01-24T01:53:58.210Z,77.24
2018-01-24T01:56:25.668Z,77.30
2018-01-24T01:58:53.123Z,77.64
2018-01-24T02:01:20.586Z,77.68
2018-01-24T02:03:48.096Z,77.80
2018-01-24T02:06:15.566Z,77.95
2018-01-24T02:08:43.019Z,77.98
2018-01-24T02:11:10.601Z,77.96
2018-01-24T02:13:38.078Z,77.84
2018-01-24T02:16:05.533Z,77.53
2018-01-24T02:18:38.904Z,77.37
2018-01-24T02:21:06.383Z,77.42
2018-01-24T02:23:33.922Z,77.34
2018-01-24T02:26:01.404Z,77.33
2018-01-24T02:28:29.091Z,77.44
2018-01-24T02:30:56.567Z,77.33
2018-01-24T02:33:24.231Z,77.32
2018-01-24T02:35:51.683Z,77.48
2018-01-24T02:38:30.127Z,77.41
2018-01-24T02:40:57.637Z,77.46
2018-01-24T02:43:25.074Z,77.65
2018-01-24T02:45:52.549Z,77.50
2018-01-24T02:48:20.029Z,77.33
2018-01-24T02:50:47.494Z,77.49
2018-01-24T02:53:15.062Z,77.59
2018-01-24T02:55:42.528Z,77.73
2018-01-24T02:58:10.002Z,77.57
2018-01-24T03:00:37.588Z,77.80
2018-01-24T03:03:05.130Z,78.05
2018-01-24T03:05:32.598Z,78.80
2018-01-24T03:08:00.050Z,79.02
2018-01-24T03:10:27.517Z,79.54
2018-01-24T03:12:54.988Z,79.58
2018-01-24T03:15:22.471Z,79.85
2018-01-24T03:17:49.947Z,80.35
2018-01-24T03:20:17.557Z,80.57
2018-01-24T03:22:45.043Z,80.69
2018-01-24T03:25:12.605Z,80.90
2018-01-24T03:27:40.064Z,81.06
2018-01-24T03:30:07.519Z,81.22
2018-01-24T03:32:34.974Z,81.38
2018-01-24T03:35:02.426Z,81.72
2018-01-24T03:37:29.901Z,81.72
2018-01-24T03:39:57.388Z,81.85
2018-01-24T03:42:25.032Z,82.07
2018-01-24T03:44:52.506Z,82.14
2018-01-24T03:47:20.004Z,82.24
2018-01-24T03:49:47.447Z,82.30
2018-01-24T03:52:15.069Z,82.42
2018-01-24T03:54:42.767Z,82.48
2018-01-24T03:57:10.218Z,82.35
2018-01-24T03:59:37.920Z,81.76
2018-01-24T04:02:05.379Z,81.55
2018-01-24T04:04:32.859Z,81.64
2018-01-24T04:07:00.314Z,81.75
2018-01-24T04:09:27.818Z,81.58
2018-01-24T04:11:55.359Z,81.53
2018-01-24T04:14:22.818Z,81.61
2018-01-24T04:16:50.289Z,81.54
2018-01-24T04:19:17.765Z,81.64
2018-01-24T04:21:45.257Z,81.63
2018-01-24T04:24:12.701Z,81.21
2018-01-24T04:26:40.187Z,80.97
2018-01-24T04:29:07.655Z,81.23
2018-01-24T04:31:35.113Z,81.25
2018-01-24T04:34:02.596Z,81.41
2018-01-24T04:36:30.068Z,81.11
2018-01-24T04:38:57.526Z,81.82
2018-01-24T04:41:25.011Z,82.24
2018-01-24T04:43:52.480Z,82.56
2018-01-24T04:46:19.953Z,82.71
2018-01-24T04:48:47.446Z,82.71
2018-01-24T04:51:15.150Z,82.78
2018-01-24T04:53:42.651Z,82.93
2018-01-24T04:56:10.115Z,82.78
2018-01-24T04:58:37.675Z,82.56
2018-01-24T05:01:05.142Z,82.55
2018-01-24T05:03:32.589Z,82.30
2018-01-24T05:06:00.914Z,82.16
2018-01-24T05:08:28.626Z,82.09
2018-01-24T05:10:56.081Z,82.28
2018-01-24T05:13:23.579Z,82.26
2018-01-24T05:15:51.062Z,82.09
2018-01-24T05:18:18.526Z,81.30
2018-01-24T05:20:45.975Z,81.05
2018-01-24T05:23:13.442Z,81.21
2018-01-24T05:25:40.899Z,81.35
2018-01-24T05:28:08.379Z,81.58
2018-01-24T05:30:36.362Z,82.32
2018-01-24T05:33:03.853Z,82.46
2018-01-24T05:35:32.174Z,82.54
2018-01-24T05:37:59.706Z,82.71
2018-01-24T05:40:27.167Z,83.05
2018-01-24T05:42:54.630Z,83.06
2018-01-24T05:45:22.109Z,82.72
2018-01-24T05:47:49.572Z,82.49
2018-01-24T05:50:17.046Z,82.02
2018-01-24T05:52:44.516Z,81.82
2018-01-24T05:55:11.961Z,81.68
2018-01-24T05:57:39.438Z,81.67
2018-01-24T06:00:06.933Z,81.44
2018-01-24T06:02:35.727Z,81.42
2018-01-24T06:05:03.184Z,81.07
2018-01-24T06:07:30.663Z,81.04
2018-01-24T06:09:58.146Z,81.10
2018-01-24T06:12:25.750Z,81.09
2018-01-24T06:14:53.222Z,81.01
2018-01-24T06:17:20.749Z,80.89
2018-01-24T06:19:48.215Z,80.86
2018-01-24T06:22:15.787Z,80.78
2018-01-24T06:24:43.437Z,80.41
2018-01-24T06:27:10.878Z,80.83
2018-01-24T06:29:38.711Z,80.16
2018-01-24T06:32:06.204Z,80.06
2018-01-24T06:34:33.728Z,79.15
2018-01-24T06:37:01.186Z,78.92
2018-01-24T06:39:28.675Z,78.83
2018-01-24T06:41:56.153Z,78.33
2018-01-24T06:44:23.603Z,78.11
2018-01-24T06:46:51.089Z,77.72
2018-01-24T06:49:18.577Z,76.98
2018-01-24T06:51:46.033Z,76.62
2018-01-24T06:54:13.535Z,76.96
2018-01-24T06:56:40.995Z,76.85
2018-01-24T06:59:08.524Z,77.28
2018-01-24T07:01:36.029Z,77.90
2018-01-24T07:04:03.800Z,78.22
2018-01-24T07:06:31.427Z,78.35
2018-01-24T07:08:58.903Z,78.42
2018-01-24T07:11:26.360Z,78.43
2018-01-24T07:14:05.574Z,78.46
2018-01-24T07:16:33.063Z,78.53
2018-01-24T07:19:00.519Z,78.55
2018-01-24T07:21:28.054Z,78.57
2018-01-24T07:23:55.511Z,78.61
2018-01-24T07:26:23.010Z,78.32
2018-01-24T07:28:50.489Z,78.64
2018-01-24T07:31:17.956Z,78.98
2018-01-24T07:33:45.424Z,78.86
2018-01-24T07:36:12.899Z,79.21
2018-01-24T07:38:40.391Z,79.77
2018-01-24T07:41:07.924Z,80.45
2018-01-24T07:43:35.420Z,80.33
2018-01-24T07:46:02.886Z,80.72
2018-01-24T07:48:30.348Z,81.03
2018-01-24T07:50:57.861Z,81.55
2018-01-24T07:53:25.336Z,81.49
2018-01-24T07:55:52.795Z,81.30
2018-01-24T07:58:20.253Z,81.00
2018-01-24T08:00:47.824Z,80.98
2018-01-24T08:03:15.399Z,81.31
2018-01-24T08:05:42.862Z,81.38
2018-01-24T08:08:10.322Z,81.72
2018-01-24T08:10:37.794Z,81.71
2018-01-24T08:13:05.260Z,82.22
2018-01-24T08:15:32.736Z,82.40
2018-01-24T08:18:00.198Z,82.13
2018-01-24T08:20:27.754Z,82.44
2018-01-24T08:22:55.217Z,82.87
2018-01-24T08:25:22.688Z,82.52
2018-01-24T08:27:50.164Z,81.98
2018-01-24T08:30:17.639Z,81.24
2018-01-24T08:32:45.099Z,80.93
2018-01-24T08:35:12.546Z,81.95
2018-01-24T08:37:40.008Z,82.06
2018-01-24T08:40:07.491Z,81.87
2018-01-24T08:42:34.943Z,81.63
2018-01-24T08:45:02.411Z,81.52
2018-01-24T08:47:29.945Z,81.94
2018-01-24T08:49:57.400Z,81.62
2018-01-24T08:52:24.882Z,81.49
2018-01-24T08:54:52.362Z,80.75
2018-01-24T08:57:19.830Z,79.61
2018-01-24T08:59:47.279Z,79.77
2018-01-24T09:02:17.358Z,79.79
2018-01-24T09:05:02.288Z,79.57
2018-01-24T09:07:47.161Z,79.60
2018-01-24T09:10:32.180Z,79.64
2018-01-24T09:13:17.161Z,80.11
2018-01-24T09:16:02.038Z,81.05
2018-01-24T09:18:46.835Z,81.79
2018-01-24T09:21:31.716Z,81.77
2018-01-24T09:24:05.371Z,81.22
2018-01-24T09:26:33.062Z,81.47
2018-01-24T09:29:00.573Z,81.45
2018-01-24T09:31:28.086Z,82.13
2018-01-24T09:33:55.560Z,81.91
2018-01-24T09:36:23.083Z,81.88
2018-01-24T09:38:50.603Z,80.99
2018-01-24T09:41:18.076Z,81.54
2018-01-24T09:43:45.620Z,81.51
2018-01-24T09:46:13.213Z,81.13
2018-01-24T09:48:43.116Z,80.66
2018-01-24T09:51:10.605Z,79.95
2018-01-24T09:53:38.092Z,79.65
2018-01-24T09:56:05.570Z,79.67
2018-01-24T09:58:33.397Z,79.20
2018-01-24T10:01:00.890Z,78.09
2018-01-24T10:03:28.407Z,78.18
2018-01-24T10:05:55.878Z,78.64
2018-01-24T10:08:23.341Z,78.76
2018-01-24T10:10:50.804Z,78.61
2018-01-24T10:13:18.292Z,78.89
2018-01-24T10:15:45.814Z,79.43
2018-01-24T10:18:13.341Z,79.77
2018-01-24T10:20:40.822Z,80.14
2018-01-24T10:23:08.323Z,79.61
2018-01-24T10:25:35.791Z,79.33
2018-01-24T10:28:03.327Z,79.55
2018-01-24T10:30:30.798Z,78.66
2018-01-24T10:32:58.293Z,78.22
2018-01-24T10:35:25.763Z,77.85
2018-01-24T10:37:53.295Z,77.38
2018-01-24T10:40:20.782Z,77.16
2018-01-24T10:42:48.271Z,77.59
2018-01-24T10:45:16.030Z,77.44
2018-01-24T10:47:43.529Z,77.17
2018-01-24T10:50:11.009Z,77.46
2018-01-24T10:52:38.529Z,77.31
2018-01-24T10:55:05.995Z,77.46
2018-01-24T10:57:33.484Z,77.49
2018-01-24T11:00:01.007Z,77.21
2018-01-24T11:02:28.505Z,77.69
2018-01-24T11:04:56.001Z,77.53
2018-01-24T11:07:24.342Z,77.49
2018-01-24T11:09:51.835Z,77.85
2018-01-24T11:12:19.311Z,77.76
2018-01-24T11:14:46.781Z,77.87
2018-01-24T11:17:14.275Z,78.10
2018-01-24T11:19:41.804Z,77.91
2018-01-24T11:22:09.264Z,78.30
2018-01-24T11:24:37.089Z,77.36
2018-01-24T11:27:04.577Z,77.29
2018-01-24T11:29:32.075Z,76.40
2018-01-24T11:31:59.689Z,76.47
2018-01-24T11:34:27.154Z,75.33
2018-01-24T11:36:54.635Z,75.65
2018-01-24T11:39:22.148Z,75.56
2018-01-24T11:41:49.646Z,75.15
2018-01-24T11:44:17.215Z,73.87
2018-01-24T11:46:44.724Z,73.16
2018-01-24T11:49:12.179Z,72.67
2018-01-24T11:51:41.054Z,72.42
2018-01-24T11:54:08.850Z,72.59
2018-01-24T11:56:36.453Z,72.44
2018-01-24T11:59:04.122Z,72.31
2018-01-24T12:01:31.656Z,71.72
2018-01-24T12:03:59.252Z,72.21
2018-01-24T12:06:27.777Z,72.77
2018-01-24T12:08:55.394Z,72.20
2018-01-24T12:11:23.015Z,72.01
2018-01-24T12:13:50.544Z,71.93
2018-01-24T12:16:18.981Z,71.70
2018-01-24T12:18:46.654Z,71.62
2018-01-24T12:21:14.370Z,71.93
2018-01-24T12:23:41.913Z,71.79
2018-01-24T12:26:09.806Z,71.96
2018-01-24T12:28:37.303Z,72.91
2018-01-24T12:31:04.770Z,72.84
2018-01-24T12:33:32.263Z,73.02
2018-01-24T12:35:59.750Z,73.62
2018-01-24T12:38:27.497Z,73.78
2018-01-24T12:40:55.003Z,73.54
2018-01-24T12:43:22.495Z,73.29
2018-01-24T12:45:49.966Z,73.30
2018-01-24T12:48:17.441Z,73.85
2018-01-24T12:50:44.894Z,74.00
2018-01-24T12:53:12.377Z,74.02
2018-01-24T12:55:39.837Z,75.00
2018-01-24T12:58:07.292Z,74.84
2018-01-24T13:00:34.759Z,74.81
2018-01-24T13:03:02.208Z,74.96
2018-01-24T13:05:29.690Z,76.09
2018-01-24T13:07:57.188Z,76.37
2018-01-24T13:10:24.607Z,76.16
2018-01-24T13:12:52.086Z,76.06
2018-01-24T13:15:19.554Z,75.22
2018-01-24T13:17:47.024Z,74.23
2018-01-24T13:20:15.503Z,72.84
2018-01-24T13:22:43.021Z,72.84
2018-01-24T13:25:10.519Z,72.55
2018-01-24T13:27:37.983Z,72.51
2018-01-24T13:30:05.465Z,72.60
2018-01-24T13:32:33.292Z,71.42
2018-01-24T13:35:00.783Z,71.14
2018-01-24T13:37:28.254Z,69.79
2018-01-24T13:39:55.738Z,69.35
2018-01-24T13:42:23.480Z,69.49
2018-01-24T13:44:51.076Z,69.70
2018-01-24T13:47:18.703Z,70.09
2018-01-24T13:49:46.275Z,70.84
2018-01-24T13:52:13.983Z,71.03
2018-01-24T13:54:41.693Z,71.32
2018-01-24T13:57:09.167Z,71.00
2018-01-24T13:59:36.696Z,70.91
2018-01-24T14:02:04.231Z,70.62
2018-01-24T14:04:31.791Z,70.71
2018-01-24T14:06:59.255Z,70.25
2018-01-24T14:09:26.735Z,70.62
2018-01-24T14:11:54.268Z,70.15
2018-01-24T14:14:21.738Z,69.00
2018-01-24T14:16:49.205Z,68.77
2018-01-24T14:19:16.666Z,68.84
2018-01-24T14:21:44.126Z,68.89
2018-01-24T14:24:11.649Z,68.87
2018-01-24T14:26:39.204Z,68.46
2018-01-24T14:29:06.680Z,67.46
2018-01-24T14:31:34.158Z,66.40
2018-01-24T14:34:01.717Z,66.03
2018-01-24T14:36:29.217Z,65.75
2018-01-24T14:38:56.705Z,65.37
2018-01-24T14:41:24.188Z,65.51
2018-01-24T14:43:51.730Z,64.41
2018-01-24T14:46:19.200Z,64.67
2018-01-24T14:48:46.719Z,63.91
2018-01-24T14:51:16.578Z,64.28
2018-01-24T14:53:44.095Z,64.25
2018-01-24T14:58:48.929Z,65.05
2018-01-24T15:01:19.438Z,64.68
2018-01-24T15:03:50.185Z,64.80
2018-01-24T15:06:20.759Z,65.72
2018-01-24T15:09:04.390Z,66.46
2018-01-24T15:14:55.249Z,67.29
2018-01-24T15:17:24.996Z,67.34
2018-01-24T15:19:52.587Z,67.68
2018-01-24T15:22:22.426Z,68.11
2018-01-24T15:24:50.415Z,69.17
2018-01-24T15:27:21.208Z,70.70
2018-01-24T15:29:49.116Z,72.39
2018-01-24T15:32:16.735Z,73.70
2018-01-24T15:34:44.198Z,74.86
2018-01-24T15:37:11.690Z,76.02
2018-01-24T15:39:39.169Z,76.69
2018-01-24T15:42:06.650Z,77.90
2018-01-24T15:44:34.360Z,78.82
2018-01-24T15:47:01.879Z,79.51
2018-01-24T15:49:35.436Z,80.44
2018-01-24T15:52:04.859Z,81.25
2018-01-24T15:54:32.854Z,81.87
2018-01-24T15:57:00.447Z,82.95
2018-01-24T15:59:30.082Z,83.48
2018-01-24T16:01:57.579Z,83.87
2018-01-24T16:04:27.236Z,84.41
2018-01-24T16:06:54.825Z,84.86
2018-01-24T16:09:22.771Z,85.16
2018-01-24T16:11:50.541Z,85.32
2018-01-24T16:14:18.708Z,85.69
2018-01-24T16:16:46.979Z,86.22
2018-01-24T16:19:14.467Z,86.57
2018-01-24T16:21:43.603Z,86.41
2018-01-24T16:24:12.967Z,86.76
2018-01-24T16:26:40.542Z,86.82
2018-01-24T16:29:08.039Z,86.99
2018-01-24T16:31:35.589Z,87.01
2018-01-24T16:34:03.072Z,87.32
2018-01-24T16:36:30.564Z,87.38
2018-01-24T16:38:58.905Z,87.52
2018-01-24T16:41:29.642Z,87.71
2018-01-24T16:43:57.347Z,87.91
2018-01-24T16:46:26.981Z,87.79
2018-01-24T16:48:54.619Z,88.12
2018-01-24T16:51:22.158Z,88.10
2018-01-24T16:53:49.677Z,88.52
2018-01-24T16:56:17.237Z,88.77
2018-01-24T16:58:44.865Z,89.07
2018-01-24T17:01:12.372Z,89.39
2018-01-24T17:03:39.847Z,89.63
2018-01-24T17:06:08.361Z,89.83
2018-01-24T17:08:35.912Z,90.13
2018-01-24T17:11:03.356Z,90.37
2018-01-24T17:13:30.825Z,90.57
2018-01-24T17:15:58.355Z,90.24
2018-01-24T17:18:26.086Z,90.14
2018-01-24T17:20:53.556Z,90.25
2018-01-24T17:23:21.033Z,90.58
2018-01-24T17:25:48.545Z,90.55
2018-01-24T17:28:17.102Z,90.48
2018-01-24T17:30:45.271Z,90.38
2018-01-24T17:33:12.774Z,90.41
2018-01-24T17:35:41.919Z,90.64
2018-01-24T17:38:09.407Z,91.08
2018-01-24T17:40:36.960Z,91.23
2018-01-24T17:43:05.369Z,91.10
2018-01-24T17:45:33.633Z,91.01
2018-01-24T17:48:01.355Z,91.23
2018-01-24T17:50:28.940Z,91.58
2018-01-24T17:52:57.285Z,91.65
2018-01-24T17:55:25.261Z,91.64
2018-01-24T17:57:52.733Z,91.81
2018-01-24T18:00:20.292Z,91.55
2018-01-24T18:02:47.818Z,91.67
2018-01-24T18:05:15.393Z,91.55
2018-01-24T18:07:42.877Z,91.16
2018-01-24T18:10:10.416Z,91.03
2018-01-24T18:12:37.896Z,91.36
2018-01-24T18:15:05.459Z,91.74
2018-01-24T18:17:32.997Z,92.10
2018-01-24T18:20:00.575Z,92.01
2018-01-24T18:22:28.410Z,92.00
2018-01-24T18:24:55.983Z,92.12
2018-01-24T18:27:23.485Z,92.31
2018-01-24T18:29:51.028Z,92.08
2018-01-24T18:32:21.481Z,92.09
2018-01-24T18:34:48.960Z,92.15
2018-01-24T18:37:16.475Z,92.16
2018-01-24T18:39:44.079Z,92.29
2018-01-24T18:42:11.587Z,92.54
2018-01-24T18:44:39.056Z,92.59
2018-01-24T18:47:06.535Z,92.68
2018-01-24T18:49:34.028Z,92.52
2018-01-24T18:52:01.505Z,92.45
2018-01-24T18:54:29.781Z,92.58
2018-01-24T18:56:57.294Z,92.66
2018-01-24T18:59:24.752Z,92.63
2018-01-24T19:01:52.457Z,92.16
2018-01-24T19:04:20.032Z,92.07
2018-01-24T19:06:47.559Z,92.10
2018-01-24T19:09:16.315Z,91.59
2018-01-24T19:11:43.924Z,91.35
2018-01-24T19:14:11.478Z,91.28
2018-01-24T19:16:38.892Z,91.33
2018-01-24T19:19:06.366Z,91.31
2018-01-24T19:21:33.846Z,91.57
2018-01-24T19:24:01.322Z,91.54
2018-01-24T19:26:28.868Z,91.64
2018-01-24T19:28:56.343Z,91.76
2018-01-24T19:31:23.860Z,91.79
2018-01-24T19:33:51.335Z,91.81
2018-01-24T19:36:18.807Z,91.69
2018-01-24T19:38:46.325Z,91.68
2018-01-24T19:41:14.954Z,91.58
2018-01-24T19:43:42.540Z,91.51
2018-01-24T19:46:10.039Z,91.49
2018-01-24T19:48:37.530Z,91.79
2018-01-24T19:51:05.133Z,91.97
2018-01-24T19:53:32.626Z,92.05
2018-01-24T19:56:00.159Z,91.89
2018-01-24T19:58:27.696Z,91.74
2018-01-24T20:00:55.171Z,91.69
2018-01-24T20:03:22.634Z,91.57
2018-01-24T20:05:50.107Z,91.41
2018-01-24T20:08:17.846Z,91.07
2018-01-24T20:10:45.342Z,91.03
2018-01-24T20:13:12.826Z,90.96
2018-01-24T20:15:40.303Z,91.15
2018-01-24T20:18:07.824Z,91.18
2018-01-24T20:20:35.319Z,90.89
2018-01-24T20:23:02.852Z,90.69
2018-01-24T20:25:30.344Z,90.14
2018-01-24T20:27:57.828Z,89.82
2018-01-24T20:30:26.582Z,89.77
2018-01-24T20:32:54.063Z,89.80
2018-01-24T20:35:21.549Z,89.79
2018-01-24T20:37:49.040Z,89.80
2018-01-24T20:40:17.384Z,89.89
2018-01-24T20:42:44.849Z,89.96
2018-01-24T20:45:13.388Z,90.07
2018-01-24T20:47:40.919Z,90.17
2018-01-24T20:50:08.389Z,90.08
2018-01-24T20:52:35.916Z,90.22
2018-01-24T20:55:03.435Z,90.15
2018-01-24T20:57:30.898Z,89.60
2018-01-24T20:59:58.388Z,89.28
2018-01-24T21:02:25.933Z,89.21
2018-01-24T21:04:54.039Z,89.23
2018-01-24T21:07:23.386Z,89.17
2018-01-24T21:09:51.993Z,89.26
2018-01-24T21:12:19.545Z,89.45
2018-01-24T21:14:49.280Z,89.59
2018-01-24T21:17:17.090Z,89.80
2018-01-24T21:19:47.210Z,89.93
2018-01-24T21:22:16.876Z,89.96
2018-01-24T21:24:47.432Z,89.92
2018-01-24T21:27:19.383Z,89.96
2018-01-24T21:30:00.790Z,89.86
2018-01-24T21:32:41.392Z,89.87
2018-01-24T21:38:21.353Z,89.59
2018-01-24T21:40:54.422Z,89.76
2018-01-24T21:43:22.711Z,90.16
2018-01-24T21:45:57.251Z,90.45
2018-01-24T21:48:27.560Z,90.56
2018-01-24T21:53:58.971Z,91.01
2018-01-24T21:56:26.668Z,91.19
2018-01-24T21:58:54.297Z,91.43
2018-01-24T22:01:21.821Z,91.58
2018-01-24T22:03:49.366Z,91.74
2018-01-24T22:06:16.914Z,91.86
2018-01-24T22:08:44.492Z,91.97
2018-01-24T22:11:12.031Z,92.11
2018-01-24T22:13:39.522Z,92.17
2018-01-24T22:16:07.716Z,92.19
2018-01-24T22:18:35.507Z,92.39
2018-01-24T22:21:03.038Z,92.54
2018-01-24T22:23:31.180Z,92.59
2018-01-24T22:25:58.985Z,92.58
2018-01-24T22:28:26.659Z,92.52
2018-01-24T22:30:54.883Z,92.65
2018-01-24T22:33:22.495Z,92.84
2018-01-24T22:35:50.300Z,92.89
2018-01-24T22:38:17.792Z,93.14
2018-01-24T22:40:46.471Z,93.17
2018-01-24T22:43:14.199Z,93.25
2018-01-24T22:45:41.791Z,93.23
2018-01-24T22:48:09.324Z,93.26
2018-01-24T22:50:39.604Z,93.36
2018-01-24T22:53:07.193Z,93.55
2018-01-24T22:55:34.704Z,93.66
2018-01-24T22:58:02.484Z,93.70
2018-01-24T23:00:30.011Z,93.85
2018-01-24T23:02:57.571Z,94.01
2018-01-24T23:05:25.080Z,93.94
2018-01-24T23:07:52.585Z,93.89
2018-01-24T23:10:20.151Z,93.87
2018-01-24T23:12:47.636Z,93.68
2018-01-24T23:15:16.013Z,93.82
2018-01-24T23:17:43.617Z,93.81
2018-01-24T23:20:11.103Z,93.89
2018-01-24T23:22:38.640Z,93.82
2018-01-24T23:25:06.121Z,93.91
2018-01-24T23:27:33.646Z,94.05
2018-01-24T23:30:01.140Z,94.19
2018-01-24T23:32:30.983Z,94.31
2018-01-24T23:34:58.478Z,94.41
2018-01-24T23:37:25.983Z,94.54
2018-01-24T23:39:53.488Z,94.62
2018-01-24T23:42:20.964Z,94.83
2018-01-24T23:44:48.440Z,94.95
2018-01-24T23:47:15.917Z,94.96
2018-01-24T23:49:43.507Z,94.92
2018-01-24T23:52:10.963Z,94.89
2018-01-24T23:54:38.452Z,94.95
2018-01-24T23:57:05.974Z,95.06
2018-01-24T23:59:33.443Z,95.10
